For GOD so loved the world that HE gave HIS one and only SON, that whoever believes in HIM shall not perish but have eternal life.


Thunder radar more information blitzortung!


Rain radar more information rain snow radar



Weather Underground History page Text

Daily Summary for April 20, 2018 Units:  English    Metric   Both
« Previous Day
Next Day »
Daily Weekly Monthly Yearly Custom
  Current: High: Low: Average:
Temperature: 30.7 °F TemperatureF °F 30.7 °F 32.6 °F
Dew Point: 24.0 °F DewpointF °F 23.8 °F 26.1 °F
Humidity: 76 % Humidity % 72 % 76 %
Wind Speed: 1.1 mph WindSpeedMPH mph 0.0 mph 2.2 mph
Wind Gust: 2.3 mph WindSpeedGustMPH mph - -
Wind:NW - - NW
Pressure: 30.28 in PressureIn in 30.21 in -
Precipitation: 0.00 in      
Historical Graphs
 
 
Tabular Data for April 20, 2018
Time Temperature Dew Point Pressure Wind Wind Speed Wind Gust Humidity Rainfall Rate (Hourly)
TemperatureF °F DewpointF °F PressureIn in Calm     Humidity % HourlyPrecipIn in
00:01 33.8 °F 28.9 °F 30.21 in West 2.4 mph 3.5 mph 82 % 0.00 in
00:06 33.8 °F 28.9 °F 30.21 in WNW 2.6 mph 3.5 mph 82 % 0.00 in
00:11 33.8 °F 28.9 °F 30.21 in WNW 3.1 mph 4.6 mph 82 % 0.00 in
00:16 33.9 °F 29.0 °F 30.21 in WNW 3.0 mph 4.6 mph 82 % 0.00 in
00:21 33.9 °F 29.0 °F 30.21 in NW 3.6 mph 4.0 mph 82 % 0.00 in
00:26 33.9 °F 29.0 °F 30.22 in WNW 2.9 mph 3.5 mph 82 % 0.00 in
00:31 33.9 °F 29.0 °F 30.22 in WNW 2.3 mph 3.5 mph 82 % 0.00 in
00:36 33.9 °F 29.0 °F 30.22 in WNW 1.8 mph 3.5 mph 82 % 0.00 in
00:41 33.9 °F 29.0 °F 30.22 in WNW 0.8 mph 1.2 mph 82 % 0.00 in
00:46 33.9 °F 29.0 °F 30.22 in WNW 2.2 mph 3.5 mph 82 % 0.00 in
00:51 33.9 °F 29.0 °F 30.22 in WNW 2.1 mph 3.5 mph 82 % 0.00 in
00:56 33.9 °F 29.0 °F 30.22 in WNW 1.1 mph 2.3 mph 82 % 0.00 in
01:01 33.9 °F 29.0 °F 30.22 in WNW 1.9 mph 3.5 mph 82 % 0.00 in
01:06 33.9 °F 29.0 °F 30.22 in WNW 1.1 mph 2.3 mph 82 % 0.00 in
01:11 33.9 °F 29.0 °F 30.22 in WNW 0.5 mph 2.3 mph 82 % 0.00 in
01:16 34.0 °F 29.1 °F 30.22 in WNW 0.8 mph 2.3 mph 82 % 0.00 in
01:21 34.0 °F 28.8 °F 30.22 in WNW 0.6 mph 1.2 mph 81 % 0.00 in
01:26 34.1 °F 28.9 °F 30.23 in WNW 1.5 mph 2.3 mph 81 % 0.00 in
01:31 34.2 °F 28.7 °F 30.23 in WNW 0.5 mph 1.2 mph 80 % 0.00 in
01:36 34.3 °F 28.8 °F 30.22 in WNW 0.6 mph 1.2 mph 80 % 0.00 in
01:41 34.3 °F 28.5 °F 30.22 in WNW 0.4 mph 1.2 mph 79 % 0.00 in
01:46 34.3 °F 28.5 °F 30.22 in WNW 0.3 mph 1.2 mph 79 % 0.00 in
01:51 34.3 °F 28.5 °F 30.22 in NW 1.8 mph 4.6 mph 79 % 0.00 in
01:56 34.4 °F 28.2 °F 30.22 in NW 1.3 mph 2.3 mph 78 % 0.00 in
02:01 34.3 °F 28.2 °F 30.22 in NW 2.4 mph 4.6 mph 78 % 0.00 in
02:06 34.4 °F 27.6 °F 30.22 in NNW 7.7 mph 13.8 mph 76 % 0.00 in
02:11 34.4 °F 27.0 °F 30.22 in NNW 2.7 mph 3.5 mph 74 % 0.00 in
02:16 34.4 °F 26.6 °F 30.22 in NNW 3.8 mph 5.8 mph 73 % 0.00 in
02:21 34.4 °F 26.6 °F 30.23 in WNW 5.6 mph 9.2 mph 73 % 0.00 in
02:26 34.4 °F 26.6 °F 30.23 in NW 7.0 mph 10.4 mph 73 % 0.00 in
02:31 34.3 °F 26.5 °F 30.23 in WNW 5.4 mph 9.2 mph 73 % 0.00 in
02:36 34.2 °F 26.8 °F 30.23 in North 4.7 mph 10.4 mph 74 % 0.00 in
02:41 34.0 °F 26.6 °F 30.23 in NNW 3.5 mph 5.8 mph 74 % 0.00 in
02:46 33.8 °F 26.1 °F 30.24 in WNW 5.4 mph 10.4 mph 73 % 0.00 in
02:51 33.6 °F 25.5 °F 30.24 in North 4.3 mph 6.0 mph 72 % 0.00 in
02:56 33.4 °F 25.3 °F 30.24 in NW 5.4 mph 11.5 mph 72 % 0.00 in
03:01 33.2 °F 25.1 °F 30.24 in North 5.1 mph 10.4 mph 72 % 0.00 in
03:06 33.0 °F 25.0 °F 30.25 in NNW 2.6 mph 5.0 mph 72 % 0.00 in
03:11 32.8 °F 25.1 °F 30.25 in NW 2.3 mph 5.8 mph 73 % 0.00 in
03:16 32.5 °F 24.8 °F 30.25 in NW 1.4 mph 2.3 mph 73 % 0.00 in
03:21 32.3 °F 24.6 °F 30.25 in NNW 1.9 mph 4.6 mph 73 % 0.00 in
03:26 32.2 °F 24.5 °F 30.25 in NNW 1.5 mph 2.3 mph 73 % 0.00 in
03:31 32.2 °F 24.5 °F 30.26 in NNW 2.2 mph 4.0 mph 73 % 0.00 in
03:36 32.2 °F 24.5 °F 30.26 in NNW 3.3 mph 4.6 mph 73 % 0.00 in
03:41 32.2 °F 24.5 °F 30.26 in NNW 2.8 mph 3.5 mph 73 % 0.00 in
03:46 32.2 °F 24.5 °F 30.26 in Calm   1.2 mph 73 % 0.00 in
03:51 32.0 °F 24.3 °F 30.27 in NNW 1.1 mph 2.3 mph 73 % 0.00 in
03:56 31.9 °F 24.2 °F 30.26 in NNW 0.9 mph 3.5 mph 73 % 0.00 in
04:01 31.7 °F 24.0 °F 30.27 in NNW 1.0 mph 2.3 mph 73 % 0.00 in
04:06 31.5 °F 23.8 °F 30.27 in Calm     73 % 0.00 in
04:11 31.3 °F 24.0 °F 30.27 in NNW 0.4 mph 1.2 mph 74 % 0.00 in
04:16 31.1 °F 24.1 °F 30.27 in NNW 0.9 mph 2.3 mph 75 % 0.00 in
04:21 31.1 °F 24.1 °F 30.27 in Calm     75 % 0.00 in
04:26 31.0 °F 24.0 °F 30.27 in Calm   1.2 mph 75 % 0.00 in
04:31 31.0 °F 24.3 °F 30.28 in WNW 3.5 mph 10.4 mph 76 % 0.00 in
04:36 31.1 °F 24.4 °F 30.28 in NNW 1.6 mph 3.5 mph 76 % 0.00 in
04:41 31.2 °F 24.2 °F 30.28 in NW 2.8 mph 4.6 mph 75 % 0.00 in
04:46 31.2 °F 24.2 °F 30.28 in NW 1.1 mph 2.3 mph 75 % 0.00 in
04:51 31.0 °F 24.0 °F 30.28 in NW 1.1 mph 2.3 mph 75 % 0.00 in
04:56 30.8 °F 24.1 °F 30.28 in NW 1.2 mph 3.5 mph 76 % 0.00 in
05:01 30.7 °F 24.0 °F 30.28 in NW 1.1 mph 2.3 mph 76 % 0.00 in
Bullis Road Weather
Compliments of Weather Underground - 2.5 mb

Script developed by  Jim McMurry - jmcmurry@mwt.net Adapted for the template by  Wim van der Kuil - Leuven-Template.eu